Time;durP1;ratioP1;P1;durP2;ratioP2;P2;SDS_P1;SDS_P2;PMS_P1;PMS_P2;Temp;Humidity;BMP_temperature;BMP_pressure;BME280_temperature;BME280_humidity;BME280_pressure;Samples;Min_cycle;Max_cycle;Signal;HPM_P1;HPM_P2
2023/10/22 00:01:39;;;;;;;11.27;6.15;;;;;;;;;;5121201;27;42470;-64
2023/10/22 00:04:07;;;;;;;9.90;6.05;;;;;;;;;;5113090;27;43071;-64
2023/10/22 00:06:36;;;;;;;13.73;6.22;;;;;;;;;;5114338;27;41523;-64
2023/10/22 00:09:03;;;;;;;8.65;5.93;;;;;;;;;;5126538;27;41541;-64
2023/10/22 00:11:33;;;;;;;11.27;6.38;;;;;;;;;;5118845;27;43159;-64
2023/10/22 00:14:01;;;;;;;9.95;5.93;;;;;;;;;;5114599;27;40455;-64
2023/10/22 00:16:29;;;;;;;8.32;5.80;;;;;;;;;;5121404;27;41658;-64
2023/10/22 00:18:57;;;;;;;9.68;6.25;;;;;;;;;;5119543;27;41302;-64
2023/10/22 00:21:24;;;;;;;9.57;6.13;;;;;;;;;;5109179;27;41374;-64
2023/10/22 00:23:52;;;;;;;9.90;5.65;;;;;;;;;;5120716;27;42722;-65
2023/10/22 00:26:20;;;;;;;8.55;5.40;;;;;;;;;;5118427;27;41359;-65
2023/10/22 00:28:52;;;;;;;6.07;4.93;;;;;;;;;;5108267;27;43029;-65
2023/10/22 00:31:20;;;;;;;7.47;5.00;;;;;;;;;;5128445;27;43096;-65
2023/10/22 00:33:48;;;;;;;9.52;5.40;;;;;;;;;;5109922;27;39056;-65
2023/10/22 00:36:16;;;;;;;8.13;4.78;;;;;;;;;;5111196;27;40208;-65
2023/10/22 00:38:44;;;;;;;6.13;4.68;;;;;;;;;;5105813;27;41153;-65
2023/10/22 00:41:12;;;;;;;5.45;4.63;;;;;;;;;;5129511;27;41933;-65
2023/10/22 00:43:40;;;;;;;6.63;4.82;;;;;;;;;;5128081;27;41963;-65
2023/10/22 00:46:09;;;;;;;7.57;5.03;;;;;;;;;;5093864;27;38928;-66
2023/10/22 00:48:37;;;;;;;8.38;4.30;;;;;;;;;;5127135;27;42611;-65
2023/10/22 00:51:05;;;;;;;6.80;4.70;;;;;;;;;;5118459;27;42152;-66
2023/10/22 00:53:33;;;;;;;6.63;4.50;;;;;;;;;;5109612;27;40184;-65
2023/10/22 00:56:03;;;;;;;6.25;4.47;;;;;;;;;;5129147;27;42083;-65
2023/10/22 00:58:31;;;;;;;6.93;4.53;;;;;;;;;;5124782;27;41967;-65
2023/10/22 01:00:59;;;;;;;4.20;3.75;;;;;;;;;;5128920;27;41037;-65
2023/10/22 01:03:28;;;;;;;6.18;4.00;;;;;;;;;;5112912;27;42029;-65
2023/10/22 01:05:57;;;;;;;4.05;3.60;;;;;;;;;;5120298;27;41339;-65
2023/10/22 01:08:25;;;;;;;4.65;3.65;;;;;;;;;;5129002;27;41835;-66
2023/10/22 01:10:53;;;;;;;5.00;3.88;;;;;;;;;;5128560;27;42339;-65
2023/10/22 01:13:21;;;;;;;4.90;3.70;;;;;;;;;;5128096;27;40275;-65
2023/10/22 01:15:49;;;;;;;5.05;3.90;;;;;;;;;;5119844;27;42565;-66
2023/10/22 01:18:17;;;;;;;5.70;4.00;;;;;;;;;;5122519;27;42167;-65
2023/10/22 01:20:47;;;;;;;4.32;3.50;;;;;;;;;;5094312;27;39276;-65
2023/10/22 01:23:16;;;;;;;5.03;4.22;;;;;;;;;;5129219;27;43153;-65
2023/10/22 01:25:44;;;;;;;5.88;3.53;;;;;;;;;;5126803;27;40036;-65
2023/10/22 01:28:12;;;;;;;6.30;3.58;;;;;;;;;;5109371;27;41222;-65
2023/10/22 01:30:41;;;;;;;3.40;2.92;;;;;;;;;;5128615;27;42186;-65
2023/10/22 01:33:09;;;;;;;4.38;3.30;;;;;;;;;;5110044;27;38996;-65
2023/10/22 01:35:38;;;;;;;4.35;3.45;;;;;;;;;;5128200;27;40692;-65
2023/10/22 01:38:06;;;;;;;6.82;3.95;;;;;;;;;;5109412;27;40850;-66
2023/10/22 01:40:35;;;;;;;4.57;3.03;;;;;;;;;;5127204;27;41058;-65
2023/10/22 01:43:03;;;;;;;7.07;3.35;;;;;;;;;;5129099;27;43986;-65
2023/10/22 01:45:31;;;;;;;3.08;2.72;;;;;;;;;;5127760;27;39841;-66
2023/10/22 01:47:59;;;;;;;3.78;3.03;;;;;;;;;;5111995;27;41092;-65
2023/10/22 01:50:27;;;;;;;3.75;3.00;;;;;;;;;;5128708;27;41698;-65
2023/10/22 01:52:55;;;;;;;3.90;2.90;;;;;;;;;;5108756;27;39043;-65
2023/10/22 01:55:23;;;;;;;4.70;2.80;;;;;;;;;;5128093;27;41814;-65
2023/10/22 01:57:52;;;;;;;5.53;2.80;;;;;;;;;;5127215;27;41692;-65
2023/10/22 02:00:20;;;;;;;5.65;3.00;;;;;;;;;;5096823;27;38783;-65
2023/10/22 02:02:49;;;;;;;4.80;2.85;;;;;;;;;;5106874;27;40351;-65
2023/10/22 02:05:17;;;;;;;2.95;2.40;;;;;;;;;;5095831;27;42694;-65
2023/10/22 02:07:45;;;;;;;3.70;2.63;;;;;;;;;;5128050;27;42533;-65
2023/10/22 02:10:13;;;;;;;3.70;2.55;;;;;;;;;;5108108;27;40570;-65
2023/10/22 02:12:41;;;;;;;3.33;2.47;;;;;;;;;;5128060;27;40505;-65
2023/10/22 02:15:12;;;;;;;2.65;2.28;;;;;;;;;;5127010;27;41753;-65
2023/10/22 02:17:40;;;;;;;4.93;2.63;;;;;;;;;;5124863;27;43737;-65
2023/10/22 02:20:09;;;;;;;2.60;2.38;;;;;;;;;;5127790;27;41178;-66
2023/10/22 02:22:37;;;;;;;3.33;2.60;;;;;;;;;;5125811;27;41458;-65
2023/10/22 02:25:06;;;;;;;4.45;2.50;;;;;;;;;;5109961;27;43154;-65
2023/10/22 02:27:35;;;;;;;2.80;2.30;;;;;;;;;;5092599;27;40193;-65
2023/10/22 02:30:03;;;;;;;3.30;2.20;;;;;;;;;;5125875;27;41761;-65
2023/10/22 02:32:32;;;;;;;6.20;2.13;;;;;;;;;;5113658;27;41016;-65
2023/10/22 02:35:01;;;;;;;2.58;1.90;;;;;;;;;;5113848;27;41037;-65
2023/10/22 02:37:29;;;;;;;3.85;2.10;;;;;;;;;;5120950;27;43190;-65
2023/10/22 02:39:58;;;;;;;2.67;2.13;;;;;;;;;;5120718;27;40931;-65
2023/10/22 02:42:27;;;;;;;4.30;2.13;;;;;;;;;;5115490;27;42194;-65
2023/10/22 02:44:55;;;;;;;3.25;2.20;;;;;;;;;;5121890;27;42764;-65
2023/10/22 02:47:23;;;;;;;3.03;2.05;;;;;;;;;;5108558;27;39586;-65
2023/10/22 02:49:54;;;;;;;3.03;1.98;;;;;;;;;;5108834;27;40941;-65
2023/10/22 02:52:22;;;;;;;3.28;1.80;;;;;;;;;;5126024;27;40217;-65
2023/10/22 02:54:50;;;;;;;2.47;2.10;;;;;;;;;;5096794;27;40834;-65
2023/10/22 02:57:18;;;;;;;2.58;2.38;;;;;;;;;;5127659;27;42177;-66
2023/10/22 02:59:47;;;;;;;2.20;1.85;;;;;;;;;;5112013;27;41231;-65
2023/10/22 03:02:15;;;;;;;5.05;1.90;;;;;;;;;;5128578;27;41443;-65
2023/10/22 03:04:43;;;;;;;2.38;2.08;;;;;;;;;;5130002;27;43145;-65
2023/10/22 03:07:15;;;;;;;2.30;1.65;;;;;;;;;;5131621;27;40997;-65
2023/10/22 03:09:43;;;;;;;2.20;2.00;;;;;;;;;;5127288;27;41159;-65
2023/10/22 03:12:12;;;;;;;3.17;1.88;;;;;;;;;;5119158;27;41893;-65
2023/10/22 03:14:41;;;;;;;2.20;1.73;;;;;;;;;;5101367;27;41142;-65
2023/10/22 03:17:09;;;;;;;2.15;1.33;;;;;;;;;;5111527;27;41060;-65
2023/10/22 03:19:37;;;;;;;3.25;1.80;;;;;;;;;;5129337;27;40091;-65
2023/10/22 03:22:08;;;;;;;2.63;2.08;;;;;;;;;;5130617;27;41624;-65
2023/10/22 03:24:38;;;;;;;1.70;1.60;;;;;;;;;;5129898;27;42756;-65
2023/10/22 03:27:06;;;;;;;1.92;1.67;;;;;;;;;;5130077;27;40848;-65
2023/10/22 03:29:34;;;;;;;1.88;1.60;;;;;;;;;;5131200;27;42690;-65
2023/10/22 03:32:02;;;;;;;2.78;1.85;;;;;;;;;;5110937;27;42957;-65
2023/10/22 03:34:30;;;;;;;2.25;1.70;;;;;;;;;;5109498;27;41558;-65
2023/10/22 03:37:00;;;;;;;1.85;1.25;;;;;;;;;;5126763;27;42126;-65
2023/10/22 03:39:29;;;;;;;1.85;1.60;;;;;;;;;;5110778;27;39381;-65
2023/10/22 03:41:59;;;;;;;2.60;1.63;;;;;;;;;;5126768;27;41642;-65
2023/10/22 03:44:27;;;;;;;1.77;1.40;;;;;;;;;;5104595;27;41281;-66
2023/10/22 03:46:55;;;;;;;2.13;1.63;;;;;;;;;;5129523;27;40190;-65
2023/10/22 03:49:23;;;;;;;1.55;1.30;;;;;;;;;;5129932;27;42454;-65
2023/10/22 03:51:51;;;;;;;1.65;1.55;;;;;;;;;;5129333;27;41916;-65
2023/10/22 03:54:18;;;;;;;1.80;1.23;;;;;;;;;;5130151;27;39777;-65
2023/10/22 03:56:46;;;;;;;1.85;1.50;;;;;;;;;;5129299;27;44167;-65
2023/10/22 03:59:16;;;;;;;1.83;1.40;;;;;;;;;;5117185;27;40275;-65
2023/10/22 04:01:44;;;;;;;1.40;1.30;;;;;;;;;;5127691;27;41486;-65
2023/10/22 04:04:12;;;;;;;1.98;1.33;;;;;;;;;;5129151;27;42567;-65
2023/10/22 04:06:40;;;;;;;1.95;1.30;;;;;;;;;;5129069;27;40227;-65
2023/10/22 04:09:07;;;;;;;1.52;1.20;;;;;;;;;;5128263;27;42054;-65
2023/10/22 04:11:35;;;;;;;2.13;1.50;;;;;;;;;;5126315;27;41996;-65
2023/10/22 04:14:03;;;;;;;1.73;1.23;;;;;;;;;;5129001;27;40448;-65
2023/10/22 04:16:33;;;;;;;1.50;1.20;;;;;;;;;;5128843;27;41207;-65
2023/10/22 04:19:01;;;;;;;1.40;1.17;;;;;;;;;;5108476;28;40563;-65
2023/10/22 04:21:29;;;;;;;1.88;1.08;;;;;;;;;;5107637;27;41363;-65
2023/10/22 04:23:57;;;;;;;1.30;1.10;;;;;;;;;;5100389;28;42859;-65
2023/10/22 04:26:27;;;;;;;1.75;1.35;;;;;;;;;;5105754;27;40498;-65
2023/10/22 04:28:55;;;;;;;3.15;1.55;;;;;;;;;;5104490;27;41500;-65
2023/10/22 04:31:22;;;;;;;2.47;1.08;;;;;;;;;;5106935;27;42364;-65
2023/10/22 04:33:52;;;;;;;1.70;1.08;;;;;;;;;;5104688;27;40224;-65
2023/10/22 04:36:21;;;;;;;2.42;1.30;;;;;;;;;;5105777;28;42492;-65
2023/10/22 04:38:49;;;;;;;1.83;1.27;;;;;;;;;;5107962;27;43146;-65
2023/10/22 04:41:17;;;;;;;2.22;1.27;;;;;;;;;;5107938;27;41331;-65
2023/10/22 04:43:45;;;;;;;1.73;1.08;;;;;;;;;;5107029;27;43209;-65
2023/10/22 04:46:13;;;;;;;2.08;1.20;;;;;;;;;;5108516;27;40243;-65
2023/10/22 04:48:41;;;;;;;1.83;1.20;;;;;;;;;;5107659;27;41689;-65
2023/10/22 04:51:11;;;;;;;1.00;0.90;;;;;;;;;;5106929;27;42157;-65
2023/10/22 04:53:39;;;;;;;1.42;0.93;;;;;;;;;;5107471;27;40929;-65
2023/10/22 04:56:08;;;;;;;2.65;1.10;;;;;;;;;;5108187;27;42483;-65
2023/10/22 04:58:36;;;;;;;1.40;1.10;;;;;;;;;;5107169;27;43796;-66
2023/10/22 05:01:04;;;;;;;1.45;1.00;;;;;;;;;;5108171;27;41858;-65
2023/10/22 05:03:32;;;;;;;2.80;1.08;;;;;;;;;;5107810;28;42108;-65
2023/10/22 05:06:03;;;;;;;1.35;1.05;;;;;;;;;;5106768;27;40174;-65
2023/10/22 05:08:36;;;;;;;1.48;1.13;;;;;;;;;;5107710;27;40141;-65
2023/10/22 05:11:05;;;;;;;1.67;1.25;;;;;;;;;;5106847;27;42309;-65
2023/10/22 05:13:34;;;;;;;1.50;0.98;;;;;;;;;;5106991;27;40787;-65
2023/10/22 05:16:02;;;;;;;0.80;0.70;;;;;;;;;;5107419;28;41752;-65
2023/10/22 05:18:30;;;;;;;1.60;0.85;;;;;;;;;;5123031;27;42422;-65
2023/10/22 05:21:01;;;;;;;0.90;0.80;;;;;;;;;;5096782;27;39989;-65
2023/10/22 05:23:29;;;;;;;1.08;0.88;;;;;;;;;;5115919;27;41196;-65
2023/10/22 05:26:04;;;;;;;1.10;0.90;;;;;;;;;;5122684;27;39950;-66
2023/10/22 05:28:31;;;;;;;1.60;0.90;;;;;;;;;;5106646;27;41374;-65
2023/10/22 05:30:59;;;;;;;1.23;0.80;;;;;;;;;;5109622;27;42305;-65
2023/10/22 05:33:27;;;;;;;1.77;0.88;;;;;;;;;;5099055;27;40604;-65
2023/10/22 05:35:55;;;;;;;1.63;0.80;;;;;;;;;;5106680;27;41744;-65
2023/10/22 05:38:23;;;;;;;1.73;1.00;;;;;;;;;;5106826;27;43882;-65
2023/10/22 05:40:52;;;;;;;0.70;0.60;;;;;;;;;;5106326;27;40377;-65
2023/10/22 05:43:21;;;;;;;0.90;0.75;;;;;;;;;;5108184;27;42124;-65
2023/10/22 05:45:57;;;;;;;0.93;0.80;;;;;;;;;;5121186;27;40110;-65
2023/10/22 05:48:25;;;;;;;1.67;0.98;;;;;;;;;;5109102;27;41032;-65
2023/10/22 05:50:53;;;;;;;2.10;1.05;;;;;;;;;;5103061;27;41960;-65
2023/10/22 05:53:21;;;;;;;1.20;0.85;;;;;;;;;;5098275;27;40395;-65
2023/10/22 05:55:55;;;;;;;2.10;1.10;;;;;;;;;;5105510;27;41226;-65
2023/10/22 05:58:25;;;;;;;0.98;0.80;;;;;;;;;;5107296;27;42211;-65
2023/10/22 06:00:53;;;;;;;1.23;0.90;;;;;;;;;;5106141;27;40745;-65
2023/10/22 06:03:21;;;;;;;1.23;0.80;;;;;;;;;;5106712;27;41279;-65
2023/10/22 06:05:50;;;;;;;1.33;0.82;;;;;;;;;;5106723;27;42129;-65
2023/10/22 06:08:18;;;;;;;1.42;1.00;;;;;;;;;;5106596;27;42645;-65
2023/10/22 06:10:46;;;;;;;1.20;0.82;;;;;;;;;;5097860;27;43115;-65
2023/10/22 06:13:14;;;;;;;1.30;0.90;;;;;;;;;;5107599;27;40232;-65
2023/10/22 06:15:44;;;;;;;1.02;0.90;;;;;;;;;;5103529;27;41576;-65
2023/10/22 06:18:12;;;;;;;2.47;1.20;;;;;;;;;;5120337;27;43068;-65
2023/10/22 06:20:40;;;;;;;1.98;1.10;;;;;;;;;;5126956;27;40985;-66
2023/10/22 06:23:08;;;;;;;1.17;0.90;;;;;;;;;;5126026;27;41866;-65
2023/10/22 06:25:36;;;;;;;1.08;0.77;;;;;;;;;;5126925;27;43058;-66
2023/10/22 06:28:04;;;;;;;1.95;0.95;;;;;;;;;;5126873;27;41220;-65
2023/10/22 06:30:32;;;;;;;1.42;0.90;;;;;;;;;;5120496;27;41519;-67
2023/10/22 06:33:02;;;;;;;1.70;1.00;;;;;;;;;;5116627;27;39801;-65
2023/10/22 06:35:31;;;;;;;1.42;0.85;;;;;;;;;;5124525;27;42707;-65
2023/10/22 06:37:59;;;;;;;1.50;0.65;;;;;;;;;;5109858;27;43166;-65
2023/10/22 06:40:26;;;;;;;1.80;1.08;;;;;;;;;;5123517;27;41342;-65
2023/10/22 06:42:54;;;;;;;1.40;0.90;;;;;;;;;;5126384;27;41154;-66
2023/10/22 06:45:22;;;;;;;1.70;0.80;;;;;;;;;;5126021;27;42563;-65
2023/10/22 06:47:50;;;;;;;1.20;0.80;;;;;;;;;;5123992;27;39931;-65
2023/10/22 06:50:20;;;;;;;0.80;0.80;;;;;;;;;;5121760;27;41462;-65
2023/10/22 06:52:48;;;;;;;0.80;0.70;;;;;;;;;;5124951;27;40354;-65
2023/10/22 06:55:16;;;;;;;1.23;0.80;;;;;;;;;;5123370;27;42345;-65
2023/10/22 06:57:46;;;;;;;1.50;0.90;;;;;;;;;;5125832;27;42245;-65
2023/10/22 07:00:14;;;;;;;0.85;0.70;;;;;;;;;;5125761;27;39708;-65
2023/10/22 07:02:43;;;;;;;1.08;0.90;;;;;;;;;;5116229;27;41441;-65
2023/10/22 07:05:11;;;;;;;0.75;0.75;;;;;;;;;;5124536;27;41906;-65
2023/10/22 07:07:42;;;;;;;1.08;0.90;;;;;;;;;;5123668;27;39853;-65
2023/10/22 07:10:10;;;;;;;0.85;0.68;;;;;;;;;;5126565;27;40970;-65
2023/10/22 07:12:38;;;;;;;1.42;0.82;;;;;;;;;;5123741;27;41970;-65
2023/10/22 07:15:09;;;;;;;0.93;0.73;;;;;;;;;;5115651;27;41505;-65
2023/10/22 07:17:37;;;;;;;1.20;0.80;;;;;;;;;;5120106;27;42328;-65
2023/10/22 07:20:06;;;;;;;1.33;0.98;;;;;;;;;;5124392;27;40198;-65
2023/10/22 07:22:34;;;;;;;0.77;0.70;;;;;;;;;;5124427;27;42563;-65
2023/10/22 07:25:03;;;;;;;1.05;0.80;;;;;;;;;;5125169;27;41708;-65
2023/10/22 07:27:31;;;;;;;1.10;0.65;;;;;;;;;;5120597;27;40501;-65
2023/10/22 07:29:59;;;;;;;0.90;0.70;;;;;;;;;;5121420;27;41980;-65
2023/10/22 07:32:27;;;;;;;1.20;0.77;;;;;;;;;;5114291;27;41776;-65
2023/10/22 07:34:55;;;;;;;0.82;0.68;;;;;;;;;;5112111;27;40288;-65
2023/10/22 07:37:23;;;;;;;0.60;0.60;;;;;;;;;;5119110;27;43310;-65
2023/10/22 07:39:51;;;;;;;1.48;0.80;;;;;;;;;;5127696;27;40470;-65
2023/10/22 07:42:20;;;;;;;0.90;0.70;;;;;;;;;;5113270;27;41648;-65
2023/10/22 07:44:50;;;;;;;1.40;0.40;;;;;;;;;;5120858;27;41841;-65
2023/10/22 07:47:18;;;;;;;1.00;0.70;;;;;;;;;;5119072;27;42447;-65
2023/10/22 07:49:46;;;;;;;1.00;0.80;;;;;;;;;;5121417;27;41622;-65
2023/10/22 07:52:14;;;;;;;0.50;0.50;;;;;;;;;;5115603;27;42203;-65
2023/10/22 07:54:42;;;;;;;1.02;0.73;;;;;;;;;;5120933;27;40759;-65
2023/10/22 07:57:10;;;;;;;1.00;0.63;;;;;;;;;;5120733;27;41882;-65
2023/10/22 07:59:39;;;;;;;1.33;0.70;;;;;;;;;;5122759;27;41109;-65
2023/10/22 08:02:07;;;;;;;0.90;0.80;;;;;;;;;;5112984;27;41764;-65
2023/10/22 08:04:37;;;;;;;1.83;0.98;;;;;;;;;;5118940;27;42028;-65
2023/10/22 08:07:05;;;;;;;0.85;0.63;;;;;;;;;;5115170;27;38403;-65
2023/10/22 08:09:33;;;;;;;1.13;0.80;;;;;;;;;;5125074;27;42108;-65
2023/10/22 08:12:01;;;;;;;1.10;0.82;;;;;;;;;;5118007;27;43118;-71
2023/10/22 08:14:32;;;;;;;2.08;1.30;;;;;;;;;;5125735;27;40282;-67
2023/10/22 08:17:01;;;;;;;3.47;1.40;;;;;;;;;;5118254;27;41683;-67
2023/10/22 08:19:29;;;;;;;3.15;1.00;;;;;;;;;;5118980;27;41170;-68
2023/10/22 08:21:57;;;;;;;1.27;0.90;;;;;;;;;;5122880;27;42018;-63
2023/10/22 08:24:25;;;;;;;4.97;1.90;;;;;;;;;;5111571;27;41784;-60
2023/10/22 08:26:53;;;;;;;3.40;1.27;;;;;;;;;;5120024;27;39579;-60
2023/10/22 08:29:21;;;;;;;7.10;1.45;;;;;;;;;;5108539;27;41526;-60
2023/10/22 08:31:49;;;;;;;4.45;1.48;;;;;;;;;;5118126;27;42078;-60
2023/10/22 08:34:19;;;;;;;10.70;1.30;;;;;;;;;;5114436;27;40191;-61
2023/10/22 08:36:46;;;;;;;1.58;1.40;;;;;;;;;;5111594;27;42615;-61
2023/10/22 08:39:14;;;;;;;1.77;1.05;;;;;;;;;;5116748;27;42189;-61
2023/10/22 08:41:45;;;;;;;5.72;1.35;;;;;;;;;;5126176;27;42021;-62
2023/10/22 08:44:13;;;;;;;4.60;1.52;;;;;;;;;;5119184;27;42711;-60
2023/10/22 08:46:42;;;;;;;10.60;1.70;;;;;;;;;;5114642;27;41388;-60
2023/10/22 08:49:10;;;;;;;3.42;1.10;;;;;;;;;;5110932;27;41320;-60
2023/10/22 08:51:41;;;;;;;4.78;1.30;;;;;;;;;;5111944;27;42167;-61
2023/10/22 08:54:10;;;;;;;5.38;1.33;;;;;;;;;;5127810;27;40268;-61
2023/10/22 08:56:38;;;;;;;8.88;1.45;;;;;;;;;;5117559;27;41549;-61
2023/10/22 08:59:08;;;;;;;5.97;1.17;;;;;;;;;;5117514;27;42136;-61
2023/10/22 09:01:36;;;;;;;4.93;1.00;;;;;;;;;;5116449;27;39880;-61
2023/10/22 09:04:04;;;;;;;5.22;1.15;;;;;;;;;;5120991;27;42108;-60
2023/10/22 09:06:32;;;;;;;7.45;1.38;;;;;;;;;;5125393;27;40004;-62
2023/10/22 09:09:03;;;;;;;6.20;1.70;;;;;;;;;;5123233;27;40023;-62
2023/10/22 09:11:31;;;;;;;3.55;0.90;;;;;;;;;;5127428;27;42826;-62
2023/10/22 09:13:59;;;;;;;3.95;1.00;;;;;;;;;;5124116;27;40505;-62
2023/10/22 09:16:28;;;;;;;3.67;1.08;;;;;;;;;;5128665;27;41945;-62
2023/10/22 09:18:57;;;;;;;6.28;1.25;;;;;;;;;;5127388;27;42653;-62
2023/10/22 09:21:27;;;;;;;7.57;1.17;;;;;;;;;;5127862;27;40014;-63
2023/10/22 09:24:06;;;;;;;3.78;1.20;;;;;;;;;;5128694;27;41732;-62
2023/10/22 09:26:43;;;;;;;5.60;1.00;;;;;;;;;;5126654;27;40370;-63
2023/10/22 09:29:11;;;;;;;3.60;1.20;;;;;;;;;;5124313;27;41464;-63
2023/10/22 09:31:39;;;;;;;2.92;1.20;;;;;;;;;;5122234;27;42241;-63
2023/10/22 09:34:12;;;;;;;2.97;1.20;;;;;;;;;;5107627;27;39829;-62
2023/10/22 09:36:51;;;;;;;4.25;1.17;;;;;;;;;;5112092;27;41799;-62
2023/10/22 09:39:33;;;;;;;4.80;1.10;;;;;;;;;;5116039;27;42072;-63
2023/10/22 09:42:03;;;;;;;2.88;1.20;;;;;;;;;;5116517;27;40167;-63
2023/10/22 09:44:44;;;;;;;3.90;1.15;;;;;;;;;;5110979;27;41117;-62
2023/10/22 09:47:14;;;;;;;5.82;1.00;;;;;;;;;;5112251;27;32785;-65
2023/10/22 09:49:42;;;;;;;4.35;1.10;;;;;;;;;;5122549;27;42499;-65
2023/10/22 09:52:10;;;;;;;4.22;1.00;;;;;;;;;;5126582;27;42506;-64
2023/10/22 09:54:39;;;;;;;10.50;1.15;;;;;;;;;;5126782;27;41298;-65
2023/10/22 09:57:08;;;;;;;3.80;0.90;;;;;;;;;;5127023;27;42213;-65
2023/10/22 09:59:36;;;;;;;2.33;0.70;;;;;;;;;;5118897;27;41927;-67
2023/10/22 10:02:05;;;;;;;6.30;1.10;;;;;;;;;;5118780;27;40081;-61
2023/10/22 10:04:34;;;;;;;5.22;1.13;;;;;;;;;;5126204;27;39999;-61
2023/10/22 10:07:02;;;;;;;4.00;1.00;;;;;;;;;;5123658;27;42693;-61
2023/10/22 10:09:31;;;;;;;4.55;0.90;;;;;;;;;;5125989;27;41486;-64
2023/10/22 10:12:01;;;;;;;2.65;1.08;;;;;;;;;;5124659;27;42328;-63
2023/10/22 10:14:41;;;;;;;1.75;0.90;;;;;;;;;;5120161;27;40657;-63
2023/10/22 10:17:09;;;;;;;4.90;1.00;;;;;;;;;;5115192;27;41387;-63
2023/10/22 10:19:38;;;;;;;5.22;1.15;;;;;;;;;;5110966;27;20733;-63
2023/10/22 10:22:07;;;;;;;3.67;1.30;;;;;;;;;;5117720;27;41258;-63
2023/10/22 10:24:35;;;;;;;2.47;1.25;;;;;;;;;;5117769;27;41736;-65
2023/10/22 10:27:22;;;;;;;3.45;1.08;;;;;;;;;;5116859;27;42087;-65
2023/10/22 10:30:05;;;;;;;6.13;1.23;;;;;;;;;;5120354;27;41084;-64
2023/10/22 10:32:35;;;;;;;1.88;1.00;;;;;;;;;;5108294;27;42138;-64
2023/10/22 10:35:03;;;;;;;5.47;1.10;;;;;;;;;;5120052;27;40486;-64
2023/10/22 10:37:31;;;;;;;4.00;1.35;;;;;;;;;;5125821;27;41871;-64
2023/10/22 10:40:00;;;;;;;3.15;1.10;;;;;;;;;;5114505;27;43121;-64
2023/10/22 10:42:47;;;;;;;2.35;0.73;;;;;;;;;;5116603;27;41245;-64
2023/10/22 10:45:18;;;;;;;4.53;1.00;;;;;;;;;;5114206;27;42851;-64
2023/10/22 10:47:48;;;;;;;4.40;1.23;;;;;;;;;;5118011;27;42205;-64
2023/10/22 10:50:18;;;;;;;1.92;0.80;;;;;;;;;;5125697;27;39614;-64
2023/10/22 10:52:58;;;;;;;2.28;0.90;;;;;;;;;;5125872;27;42528;-64
2023/10/22 10:55:32;;;;;;;2.75;0.88;;;;;;;;;;5126313;27;39932;-64
2023/10/22 10:58:00;;;;;;;1.67;0.75;;;;;;;;;;5125392;27;41860;-64
2023/10/22 11:00:30;;;;;;;2.83;0.95;;;;;;;;;;5126006;27;42084;-64
2023/10/22 11:03:00;;;;;;;3.38;0.70;;;;;;;;;;5125614;27;41270;-64
2023/10/22 11:05:32;;;;;;;8.35;1.00;;;;;;;;;;5125807;27;42234;-64
2023/10/22 11:07:59;;;;;;;5.70;1.05;;;;;;;;;;5125657;27;41695;-64
2023/10/22 11:10:28;;;;;;;4.43;1.30;;;;;;;;;;5113898;27;40701;-64
2023/10/22 11:13:01;;;;;;;3.30;0.90;;;;;;;;;;5125224;27;42296;-62
2023/10/22 11:15:31;;;;;;;3.95;0.80;;;;;;;;;;5117545;27;43175;-62
2023/10/22 11:18:02;;;;;;;2.45;0.70;;;;;;;;;;5122314;27;39920;-62
2023/10/22 11:20:31;;;;;;;4.20;1.20;;;;;;;;;;5124979;27;42739;-62
2023/10/22 11:22:58;;;;;;;7.00;1.10;;;;;;;;;;5129237;27;40067;-62
2023/10/22 11:25:27;;;;;;;3.30;0.75;;;;;;;;;;5129362;27;41816;-62
2023/10/22 11:27:55;;;;;;;1.08;0.93;;;;;;;;;;5117051;27;42674;-62
2023/10/22 11:30:36;;;;;;;1.58;0.63;;;;;;;;;;5121073;27;41231;-61
2023/10/22 11:33:06;;;;;;;1.73;0.80;;;;;;;;;;5114075;27;41835;-62
2023/10/22 11:35:36;;;;;;;3.45;0.90;;;;;;;;;;5120748;27;40729;-62
2023/10/22 11:38:05;;;;;;;3.10;1.13;;;;;;;;;;5129077;27;39887;-62
2023/10/22 11:40:34;;;;;;;2.35;0.82;;;;;;;;;;5128749;27;41777;-62
2023/10/22 11:43:04;;;;;;;3.30;0.80;;;;;;;;;;5129242;27;40602;-62
2023/10/22 11:45:34;;;;;;;2.45;0.60;;;;;;;;;;5122237;27;41669;-61
2023/10/22 11:48:13;;;;;;;5.80;0.90;;;;;;;;;;5129213;27;43068;-61
2023/10/22 11:50:44;;;;;;;1.95;0.88;;;;;;;;;;5124754;27;41232;-61
2023/10/22 11:53:12;;;;;;;3.78;0.80;;;;;;;;;;5114152;27;42559;-61
2023/10/22 11:55:42;;;;;;;2.90;0.60;;;;;;;;;;5117926;27;41572;-62
2023/10/22 11:58:18;;;;;;;5.32;1.10;;;;;;;;;;5114386;27;41383;-60
2023/10/22 12:00:45;;;;;;;16.67;1.42;;;;;;;;;;5115749;27;43215;-61
2023/10/22 12:03:15;;;;;;;5.05;1.45;;;;;;;;;;5129790;27;40116;-61
2023/10/22 12:05:43;;;;;;;2.92;0.95;;;;;;;;;;5128535;27;41336;-61
2023/10/22 12:08:11;;;;;;;3.53;1.02;;;;;;;;;;5127826;27;42036;-62
2023/10/22 12:10:42;;;;;;;3.70;0.70;;;;;;;;;;5127961;27;40838;-62
2023/10/22 12:13:11;;;;;;;5.38;0.70;;;;;;;;;;5115904;27;41117;-61
2023/10/22 12:15:39;;;;;;;4.65;0.90;;;;;;;;;;5117914;27;43017;-67
2023/10/22 12:18:09;;;;;;;2.25;0.70;;;;;;;;;;5129041;27;40437;-67
2023/10/22 12:20:39;;;;;;;2.22;0.73;;;;;;;;;;5122294;27;41732;-67
2023/10/22 12:23:10;;;;;;;4.65;0.90;;;;;;;;;;5128498;27;40227;-67
2023/10/22 12:25:39;;;;;;;3.65;0.80;;;;;;;;;;5127567;27;42564;-67
2023/10/22 12:28:06;;;;;;;6.15;1.00;;;;;;;;;;5127713;27;41410;-67
2023/10/22 12:30:35;;;;;;;4.75;0.85;;;;;;;;;;5128838;27;40178;-67
2023/10/22 12:33:03;;;;;;;6.93;0.95;;;;;;;;;;5120565;27;41393;-67
2023/10/22 12:35:31;;;;;;;7.95;0.93;;;;;;;;;;5126232;27;43127;-67
2023/10/22 12:38:01;;;;;;;3.70;0.80;;;;;;;;;;5127134;27;40030;-67
2023/10/22 12:40:29;;;;;;;5.72;1.23;;;;;;;;;;5126876;27;41803;-67
2023/10/22 12:42:57;;;;;;;2.13;0.82;;;;;;;;;;5126383;27;43045;-67
2023/10/22 12:45:28;;;;;;;4.43;0.90;;;;;;;;;;5126552;27;42603;-67
2023/10/22 12:47:57;;;;;;;1.73;0.75;;;;;;;;;;5127133;27;41681;-67
2023/10/22 12:50:25;;;;;;;1.33;0.57;;;;;;;;;;5126042;27;39802;-67
2023/10/22 12:52:53;;;;;;;3.08;0.93;;;;;;;;;;5128896;27;41717;-67
2023/10/22 12:55:22;;;;;;;4.05;0.85;;;;;;;;;;5128504;27;42578;-67
2023/10/22 12:57:50;;;;;;;2.10;0.90;;;;;;;;;;5127573;27;39637;-67
2023/10/22 13:00:18;;;;;;;3.00;0.93;;;;;;;;;;5129291;27;42457;-67
2023/10/22 13:02:46;;;;;;;3.20;0.93;;;;;;;;;;5127055;27;42008;-67
2023/10/22 13:05:14;;;;;;;1.55;0.60;;;;;;;;;;5128746;27;40315;-67
2023/10/22 13:07:42;;;;;;;4.00;0.60;;;;;;;;;;5128290;27;41991;-67
2023/10/22 13:10:11;;;;;;;2.00;0.85;;;;;;;;;;5127256;27;40112;-67
2023/10/22 13:12:40;;;;;;;2.10;0.93;;;;;;;;;;5128487;27;40621;-67
2023/10/22 13:15:25;;;;;;;2.33;0.80;;;;;;;;;;5128325;27;42676;-67
2023/10/22 13:17:53;;;;;;;2.50;0.93;;;;;;;;;;5126201;27;39931;-67
2023/10/22 13:20:21;;;;;;;1.48;0.50;;;;;;;;;;5128084;27;42237;-67
2023/10/22 13:22:51;;;;;;;4.60;0.60;;;;;;;;;;5127352;27;41039;-67
2023/10/22 13:25:19;;;;;;;1.10;0.73;;;;;;;;;;5117927;27;40040;-67
2023/10/22 13:27:48;;;;;;;1.70;0.60;;;;;;;;;;5117547;27;41312;-67
2023/10/22 13:30:16;;;;;;;1.35;0.65;;;;;;;;;;5127953;27;40303;-67
2023/10/22 13:32:44;;;;;;;0.82;0.60;;;;;;;;;;5117132;27;42181;-67
2023/10/22 13:35:12;;;;;;;3.92;1.02;;;;;;;;;;5124073;27;42590;-67
2023/10/22 13:37:40;;;;;;;3.80;0.70;;;;;;;;;;5127343;27;40229;-67
2023/10/22 13:40:08;;;;;;;2.65;0.60;;;;;;;;;;5127957;27;41440;-67
2023/10/22 13:42:36;;;;;;;2.65;0.60;;;;;;;;;;5121064;27;42176;-67
2023/10/22 13:45:06;;;;;;;6.72;0.90;;;;;;;;;;5119137;27;40988;-67
2023/10/22 13:47:35;;;;;;;1.73;0.60;;;;;;;;;;5127581;27;41127;-67
2023/10/22 13:50:04;;;;;;;2.53;0.73;;;;;;;;;;5127653;27;42014;-67
2023/10/22 13:52:31;;;;;;;1.35;0.75;;;;;;;;;;5126577;27;41319;-67
2023/10/22 13:54:59;;;;;;;2.30;0.85;;;;;;;;;;5127081;27;42022;-67
2023/10/22 13:57:27;;;;;;;1.08;0.52;;;;;;;;;;5127673;27;41331;-67
2023/10/22 13:59:55;;;;;;;2.15;0.60;;;;;;;;;;5125404;27;41644;-67
2023/10/22 14:02:25;;;;;;;1.08;0.52;;;;;;;;;;5116151;27;41972;-68
2023/10/22 14:04:53;;;;;;;5.82;0.70;;;;;;;;;;5123310;27;40962;-63
2023/10/22 14:07:21;;;;;;;2.53;1.10;;;;;;;;;;5121660;27;41771;-61
2023/10/22 14:09:49;;;;;;;1.77;0.85;;;;;;;;;;5124985;27;42967;-61
2023/10/22 14:12:19;;;;;;;3.33;1.02;;;;;;;;;;5123284;27;42588;-64
2023/10/22 14:14:48;;;;;;;2.30;0.82;;;;;;;;;;5112991;27;42095;-61
2023/10/22 14:17:16;;;;;;;4.95;1.10;;;;;;;;;;5115507;27;40279;-61
2023/10/22 14:19:45;;;;;;;3.22;0.60;;;;;;;;;;5125512;27;41617;-61
2023/10/22 14:22:13;;;;;;;4.80;0.75;;;;;;;;;;5127125;27;42188;-60
2023/10/22 14:24:41;;;;;;;1.42;0.75;;;;;;;;;;5125722;27;40235;-60
2023/10/22 14:27:10;;;;;;;3.28;0.98;;;;;;;;;;5126195;27;41713;-61
2023/10/22 14:29:41;;;;;;;3.88;1.00;;;;;;;;;;5125301;27;41595;-60
2023/10/22 14:32:09;;;;;;;4.00;0.95;;;;;;;;;;5117509;27;39884;-60
2023/10/22 14:34:37;;;;;;;6.38;0.95;;;;;;;;;;5115923;27;42230;-60
2023/10/22 14:37:08;;;;;;;1.70;0.90;;;;;;;;;;5124233;27;40881;-60
2023/10/22 14:39:36;;;;;;;4.22;1.15;;;;;;;;;;5126774;27;41565;-61
2023/10/22 14:42:04;;;;;;;1.98;0.60;;;;;;;;;;5123603;27;43158;-60
2023/10/22 14:44:32;;;;;;;1.60;0.80;;;;;;;;;;5126898;27;40429;-60
2023/10/22 14:47:01;;;;;;;5.05;0.70;;;;;;;;;;5125350;27;42539;-60
2023/10/22 14:49:29;;;;;;;0.88;0.57;;;;;;;;;;5125563;27;43215;-61
2023/10/22 14:51:57;;;;;;;5.50;0.98;;;;;;;;;;5123532;27;40122;-61
2023/10/22 14:54:31;;;;;;;3.50;0.80;;;;;;;;;;5117870;27;41820;-60